sensor_id;sensor_type;location;lat;lon;timestamp;P1;durP1;ratioP1;P2;durP2;ratioP2
45694;SDS011;31408;45.468;9.124;2023-06-22T00:00:47;13.77;;;4.13;;
45694;SDS011;31408;45.468;9.124;2023-06-22T00:03:13;10.57;;;4.63;;
45694;SDS011;31408;45.468;9.124;2023-06-22T00:05:38;8.70;;;5.13;;
45694;SDS011;31408;45.468;9.124;2023-06-22T00:08:04;12.32;;;4.57;;
45694;SDS011;31408;45.468;9.124;2023-06-22T00:10:32;15.07;;;4.63;;
45694;SDS011;31408;45.468;9.124;2023-06-22T00:12:58;16.13;;;6.30;;
45694;SDS011;31408;45.468;9.124;2023-06-22T00:15:23;17.67;;;5.20;;
45694;SDS011;31408;45.468;9.124;2023-06-22T00:17:52;9.70;;;5.30;;
45694;SDS011;31408;45.468;9.124;2023-06-22T00:20:17;14.00;;;5.10;;
45694;SDS011;31408;45.468;9.124;2023-06-22T00:22:43;9.30;;;4.30;;
45694;SDS011;31408;45.468;9.124;2023-06-22T00:25:09;18.25;;;5.07;;
45694;SDS011;31408;45.468;9.124;2023-06-22T00:27:35;15.02;;;5.25;;
45694;SDS011;31408;45.468;9.124;2023-06-22T00:30:01;10.20;;;5.03;;
45694;SDS011;31408;45.468;9.124;2023-06-22T00:32:27;11.45;;;5.05;;
45694;SDS011;31408;45.468;9.124;2023-06-22T00:34:53;9.32;;;4.70;;
45694;SDS011;31408;45.468;9.124;2023-06-22T00:37:18;7.72;;;4.50;;
45694;SDS011;31408;45.468;9.124;2023-06-22T00:39:44;13.18;;;5.70;;
45694;SDS011;31408;45.468;9.124;2023-06-22T00:42:10;10.63;;;4.97;;
45694;SDS011;31408;45.468;9.124;2023-06-22T00:44:36;12.23;;;5.00;;
45694;SDS011;31408;45.468;9.124;2023-06-22T00:47:01;11.35;;;4.88;;
45694;SDS011;31408;45.468;9.124;2023-06-22T00:49:28;11.80;;;5.05;;
45694;SDS011;31408;45.468;9.124;2023-06-22T00:51:53;12.70;;;5.35;;
45694;SDS011;31408;45.468;9.124;2023-06-22T00:54:19;13.27;;;5.95;;
45694;SDS011;31408;45.468;9.124;2023-06-22T00:56:53;14.10;;;4.85;;
45694;SDS011;31408;45.468;9.124;2023-06-22T00:59:20;21.95;;;5.68;;
45694;SDS011;31408;45.468;9.124;2023-06-22T01:01:46;18.50;;;5.78;;
45694;SDS011;31408;45.468;9.124;2023-06-22T01:04:11;11.98;;;5.40;;
45694;SDS011;31408;45.468;9.124;2023-06-22T01:09:41;8.48;;;4.85;;
45694;SDS011;31408;45.468;9.124;2023-06-22T01:12:12;11.52;;;4.53;;
45694;SDS011;31408;45.468;9.124;2023-06-22T01:14:43;12.07;;;5.03;;
45694;SDS011;31408;45.468;9.124;2023-06-22T01:17:12;13.32;;;4.63;;
45694;SDS011;31408;45.468;9.124;2023-06-22T01:19:45;16.08;;;5.72;;
45694;SDS011;31408;45.468;9.124;2023-06-22T01:22:17;13.05;;;5.75;;
45694;SDS011;31408;45.468;9.124;2023-06-22T01:27:39;8.88;;;4.07;;
45694;SDS011;31408;45.468;9.124;2023-06-22T01:30:13;13.38;;;5.90;;
45694;SDS011;31408;45.468;9.124;2023-06-22T01:32:39;11.57;;;5.35;;
45694;SDS011;31408;45.468;9.124;2023-06-22T01:35:06;10.93;;;4.93;;
45694;SDS011;31408;45.468;9.124;2023-06-22T01:37:33;12.30;;;5.22;;
45694;SDS011;31408;45.468;9.124;2023-06-22T01:40:01;14.40;;;6.05;;
45694;SDS011;31408;45.468;9.124;2023-06-22T01:42:27;11.10;;;5.28;;
45694;SDS011;31408;45.468;9.124;2023-06-22T01:44:53;7.80;;;5.10;;
45694;SDS011;31408;45.468;9.124;2023-06-22T01:47:20;11.18;;;4.72;;
45694;SDS011;31408;45.468;9.124;2023-06-22T01:49:46;10.32;;;5.63;;
45694;SDS011;31408;45.468;9.124;2023-06-22T01:52:12;14.68;;;6.22;;
45694;SDS011;31408;45.468;9.124;2023-06-22T01:54:38;9.30;;;5.38;;
45694;SDS011;31408;45.468;9.124;2023-06-22T01:57:04;10.40;;;5.47;;
45694;SDS011;31408;45.468;9.124;2023-06-22T01:59:34;11.43;;;5.20;;
45694;SDS011;31408;45.468;9.124;2023-06-22T02:02:04;11.27;;;5.00;;
45694;SDS011;31408;45.468;9.124;2023-06-22T02:04:34;13.73;;;5.88;;
45694;SDS011;31408;45.468;9.124;2023-06-22T02:07:02;9.43;;;4.75;;
45694;SDS011;31408;45.468;9.124;2023-06-22T02:09:31;15.57;;;5.88;;
45694;SDS011;31408;45.468;9.124;2023-06-22T02:11:56;15.60;;;5.55;;
45694;SDS011;31408;45.468;9.124;2023-06-22T02:14:24;17.92;;;5.15;;
45694;SDS011;31408;45.468;9.124;2023-06-22T02:16:50;10.45;;;5.32;;
45694;SDS011;31408;45.468;9.124;2023-06-22T02:19:16;13.77;;;5.60;;
45694;SDS011;31408;45.468;9.124;2023-06-22T02:21:44;11.18;;;4.93;;
45694;SDS011;31408;45.468;9.124;2023-06-22T02:24:12;13.73;;;6.75;;
45694;SDS011;31408;45.468;9.124;2023-06-22T02:26:37;12.45;;;5.68;;
45694;SDS011;31408;45.468;9.124;2023-06-22T02:29:03;10.60;;;5.18;;
45694;SDS011;31408;45.468;9.124;2023-06-22T02:31:29;12.05;;;4.80;;
45694;SDS011;31408;45.468;9.124;2023-06-22T02:33:55;9.05;;;4.95;;
45694;SDS011;31408;45.468;9.124;2023-06-22T02:36:24;12.63;;;4.65;;
45694;SDS011;31408;45.468;9.124;2023-06-22T02:38:52;15.05;;;5.35;;
45694;SDS011;31408;45.468;9.124;2023-06-22T02:41:18;10.35;;;5.18;;
45694;SDS011;31408;45.468;9.124;2023-06-22T02:43:44;14.20;;;5.75;;
45694;SDS011;31408;45.468;9.124;2023-06-22T02:46:13;11.35;;;5.55;;
45694;SDS011;31408;45.468;9.124;2023-06-22T02:48:40;15.55;;;5.43;;
45694;SDS011;31408;45.468;9.124;2023-06-22T02:51:05;11.75;;;6.05;;
45694;SDS011;31408;45.468;9.124;2023-06-22T02:53:32;12.07;;;5.45;;
45694;SDS011;31408;45.468;9.124;2023-06-22T02:55:58;11.93;;;5.40;;
45694;SDS011;31408;45.468;9.124;2023-06-22T02:58:27;13.23;;;5.10;;
45694;SDS011;31408;45.468;9.124;2023-06-22T03:00:52;14.88;;;6.07;;
45694;SDS011;31408;45.468;9.124;2023-06-22T03:03:18;7.32;;;4.95;;
45694;SDS011;31408;45.468;9.124;2023-06-22T03:05:44;12.60;;;5.75;;
45694;SDS011;31408;45.468;9.124;2023-06-22T03:08:10;17.85;;;5.93;;
45694;SDS011;31408;45.468;9.124;2023-06-22T03:10:35;11.52;;;5.63;;
45694;SDS011;31408;45.468;9.124;2023-06-22T03:13:01;13.27;;;5.72;;
45694;SDS011;31408;45.468;9.124;2023-06-22T03:15:26;8.50;;;5.38;;
45694;SDS011;31408;45.468;9.124;2023-06-22T03:17:54;15.15;;;6.15;;
45694;SDS011;31408;45.468;9.124;2023-06-22T03:20:22;8.30;;;5.10;;
45694;SDS011;31408;45.468;9.124;2023-06-22T03:22:48;11.63;;;5.95;;
45694;SDS011;31408;45.468;9.124;2023-06-22T03:25:13;8.85;;;5.53;;
45694;SDS011;31408;45.468;9.124;2023-06-22T03:27:42;11.35;;;5.20;;
45694;SDS011;31408;45.468;9.124;2023-06-22T03:30:09;11.40;;;5.43;;
45694;SDS011;31408;45.468;9.124;2023-06-22T03:32:36;8.55;;;5.57;;
45694;SDS011;31408;45.468;9.124;2023-06-22T03:35:01;12.10;;;6.53;;
45694;SDS011;31408;45.468;9.124;2023-06-22T03:37:28;12.13;;;5.22;;
45694;SDS011;31408;45.468;9.124;2023-06-22T03:39:54;12.25;;;5.57;;
45694;SDS011;31408;45.468;9.124;2023-06-22T03:42:20;11.68;;;5.18;;
45694;SDS011;31408;45.468;9.124;2023-06-22T03:44:46;15.80;;;6.13;;
45694;SDS011;31408;45.468;9.124;2023-06-22T03:47:12;11.07;;;5.30;;
45694;SDS011;31408;45.468;9.124;2023-06-22T03:49:37;13.18;;;5.38;;
45694;SDS011;31408;45.468;9.124;2023-06-22T03:52:03;11.45;;;6.07;;
45694;SDS011;31408;45.468;9.124;2023-06-22T03:54:29;10.05;;;4.88;;
45694;SDS011;31408;45.468;9.124;2023-06-22T03:56:54;13.68;;;5.10;;
45694;SDS011;31408;45.468;9.124;2023-06-22T03:59:21;15.52;;;6.10;;
45694;SDS011;31408;45.468;9.124;2023-06-22T04:01:46;18.48;;;5.25;;
45694;SDS011;31408;45.468;9.124;2023-06-22T04:04:12;12.00;;;5.53;;
45694;SDS011;31408;45.468;9.124;2023-06-22T04:06:37;16.05;;;5.78;;
45694;SDS011;31408;45.468;9.124;2023-06-22T04:09:03;15.32;;;6.30;;
45694;SDS011;31408;45.468;9.124;2023-06-22T04:11:28;11.70;;;6.45;;
45694;SDS011;31408;45.468;9.124;2023-06-22T04:13:54;15.10;;;6.03;;
45694;SDS011;31408;45.468;9.124;2023-06-22T04:16:20;12.70;;;6.63;;
45694;SDS011;31408;45.468;9.124;2023-06-22T04:18:45;15.73;;;6.38;;
45694;SDS011;31408;45.468;9.124;2023-06-22T04:21:11;17.38;;;6.28;;
45694;SDS011;31408;45.468;9.124;2023-06-22T04:23:36;17.42;;;6.57;;
45694;SDS011;31408;45.468;9.124;2023-06-22T04:26:02;8.93;;;5.30;;
45694;SDS011;31408;45.468;9.124;2023-06-22T04:28:27;18.48;;;5.75;;
45694;SDS011;31408;45.468;9.124;2023-06-22T04:30:53;13.07;;;6.40;;
45694;SDS011;31408;45.468;9.124;2023-06-22T04:33:23;14.70;;;5.95;;
45694;SDS011;31408;45.468;9.124;2023-06-22T04:35:51;12.48;;;5.78;;
45694;SDS011;31408;45.468;9.124;2023-06-22T04:38:16;14.32;;;6.50;;
45694;SDS011;31408;45.468;9.124;2023-06-22T04:40:42;13.77;;;6.10;;
45694;SDS011;31408;45.468;9.124;2023-06-22T04:43:07;14.98;;;6.38;;
45694;SDS011;31408;45.468;9.124;2023-06-22T04:45:35;14.32;;;6.05;;
45694;SDS011;31408;45.468;9.124;2023-06-22T04:48:03;14.20;;;5.90;;
45694;SDS011;31408;45.468;9.124;2023-06-22T04:50:29;13.55;;;5.88;;
45694;SDS011;31408;45.468;9.124;2023-06-22T04:52:55;15.32;;;6.20;;
45694;SDS011;31408;45.468;9.124;2023-06-22T04:55:20;12.55;;;5.43;;
45694;SDS011;31408;45.468;9.124;2023-06-22T04:57:46;9.65;;;6.03;;
45694;SDS011;31408;45.468;9.124;2023-06-22T05:00:18;15.50;;;5.28;;
45694;SDS011;31408;45.468;9.124;2023-06-22T05:02:48;11.48;;;6.20;;
45694;SDS011;31408;45.468;9.124;2023-06-22T05:05:26;10.10;;;5.45;;
45694;SDS011;31408;45.468;9.124;2023-06-22T05:07:51;15.40;;;5.85;;
45694;SDS011;31408;45.468;9.124;2023-06-22T05:10:24;11.30;;;6.25;;
45694;SDS011;31408;45.468;9.124;2023-06-22T05:12:50;15.82;;;6.18;;
45694;SDS011;31408;45.468;9.124;2023-06-22T05:15:15;13.20;;;5.75;;
45694;SDS011;31408;45.468;9.124;2023-06-22T05:17:41;14.43;;;6.43;;
45694;SDS011;31408;45.468;9.124;2023-06-22T05:20:13;23.20;;;6.28;;
45694;SDS011;31408;45.468;9.124;2023-06-22T05:22:38;13.73;;;6.35;;
45694;SDS011;31408;45.468;9.124;2023-06-22T05:25:05;12.80;;;6.15;;
45694;SDS011;31408;45.468;9.124;2023-06-22T05:27:33;15.60;;;6.28;;
45694;SDS011;31408;45.468;9.124;2023-06-22T05:29:58;16.42;;;6.40;;
45694;SDS011;31408;45.468;9.124;2023-06-22T05:32:24;12.18;;;5.85;;
45694;SDS011;31408;45.468;9.124;2023-06-22T05:34:49;12.88;;;6.10;;
45694;SDS011;31408;45.468;9.124;2023-06-22T05:37:14;10.18;;;5.22;;
45694;SDS011;31408;45.468;9.124;2023-06-22T05:39:40;10.60;;;5.13;;
45694;SDS011;31408;45.468;9.124;2023-06-22T05:42:05;12.75;;;6.07;;
45694;SDS011;31408;45.468;9.124;2023-06-22T05:44:31;13.60;;;5.38;;
45694;SDS011;31408;45.468;9.124;2023-06-22T05:46:58;11.93;;;5.38;;
45694;SDS011;31408;45.468;9.124;2023-06-22T05:49:24;13.25;;;6.57;;
45694;SDS011;31408;45.468;9.124;2023-06-22T05:51:54;14.30;;;6.25;;
45694;SDS011;31408;45.468;9.124;2023-06-22T05:54:20;15.23;;;6.65;;
45694;SDS011;31408;45.468;9.124;2023-06-22T05:56:46;15.48;;;6.47;;
45694;SDS011;31408;45.468;9.124;2023-06-22T05:59:11;9.48;;;5.53;;
45694;SDS011;31408;45.468;9.124;2023-06-22T06:01:37;9.93;;;5.10;;
45694;SDS011;31408;45.468;9.124;2023-06-22T06:04:03;11.40;;;4.72;;
45694;SDS011;31408;45.468;9.124;2023-06-22T06:06:29;10.25;;;5.15;;
45694;SDS011;31408;45.468;9.124;2023-06-22T06:08:55;19.92;;;6.07;;
45694;SDS011;31408;45.468;9.124;2023-06-22T06:11:21;21.88;;;7.13;;
45694;SDS011;31408;45.468;9.124;2023-06-22T06:13:46;12.80;;;5.85;;
45694;SDS011;31408;45.468;9.124;2023-06-22T06:16:12;14.10;;;5.35;;
45694;SDS011;31408;45.468;9.124;2023-06-22T06:18:37;9.73;;;4.95;;
45694;SDS011;31408;45.468;9.124;2023-06-22T06:21:03;14.32;;;5.82;;
45694;SDS011;31408;45.468;9.124;2023-06-22T06:23:28;11.15;;;5.22;;
45694;SDS011;31408;45.468;9.124;2023-06-22T06:25:54;14.32;;;6.07;;
45694;SDS011;31408;45.468;9.124;2023-06-22T06:28:19;16.63;;;7.53;;
45694;SDS011;31408;45.468;9.124;2023-06-22T06:30:45;13.18;;;5.07;;
45694;SDS011;31408;45.468;9.124;2023-06-22T06:33:12;15.63;;;6.85;;
45694;SDS011;31408;45.468;9.124;2023-06-22T06:35:38;26.42;;;7.28;;
45694;SDS011;31408;45.468;9.124;2023-06-22T06:38:03;19.08;;;7.95;;
45694;SDS011;31408;45.468;9.124;2023-06-22T06:40:29;25.00;;;7.80;;
45694;SDS011;31408;45.468;9.124;2023-06-22T06:42:54;18.58;;;7.75;;
45694;SDS011;31408;45.468;9.124;2023-06-22T06:45:21;12.48;;;6.63;;
45694;SDS011;31408;45.468;9.124;2023-06-22T06:47:48;14.77;;;6.35;;
45694;SDS011;31408;45.468;9.124;2023-06-22T06:50:14;16.00;;;6.68;;
45694;SDS011;31408;45.468;9.124;2023-06-22T06:52:40;16.67;;;6.88;;
45694;SDS011;31408;45.468;9.124;2023-06-22T06:55:05;18.42;;;7.95;;
45694;SDS011;31408;45.468;9.124;2023-06-22T06:57:33;19.02;;;6.13;;
45694;SDS011;31408;45.468;9.124;2023-06-22T06:59:58;9.50;;;6.03;;
45694;SDS011;31408;45.468;9.124;2023-06-22T07:02:24;14.57;;;6.72;;
45694;SDS011;31408;45.468;9.124;2023-06-22T07:04:53;20.27;;;6.72;;
45694;SDS011;31408;45.468;9.124;2023-06-22T07:07:20;15.13;;;5.90;;
45694;SDS011;31408;45.468;9.124;2023-06-22T07:09:46;13.50;;;5.80;;
45694;SDS011;31408;45.468;9.124;2023-06-22T07:12:11;17.15;;;7.18;;
45694;SDS011;31408;45.468;9.124;2023-06-22T07:14:37;16.35;;;7.05;;
45694;SDS011;31408;45.468;9.124;2023-06-22T07:17:02;13.48;;;6.30;;
45694;SDS011;31408;45.468;9.124;2023-06-22T07:19:28;16.48;;;7.35;;
45694;SDS011;31408;45.468;9.124;2023-06-22T07:21:54;16.75;;;5.95;;
45694;SDS011;31408;45.468;9.124;2023-06-22T07:24:20;14.73;;;6.32;;
45694;SDS011;31408;45.468;9.124;2023-06-22T07:26:49;14.52;;;6.25;;
45694;SDS011;31408;45.468;9.124;2023-06-22T07:29:18;16.88;;;6.82;;
45694;SDS011;31408;45.468;9.124;2023-06-22T07:31:46;17.35;;;6.88;;
45694;SDS011;31408;45.468;9.124;2023-06-22T07:34:11;18.75;;;8.32;;
45694;SDS011;31408;45.468;9.124;2023-06-22T07:36:37;20.65;;;7.35;;
45694;SDS011;31408;45.468;9.124;2023-06-22T07:39:08;15.63;;;8.23;;
45694;SDS011;31408;45.468;9.124;2023-06-22T07:41:33;19.75;;;9.00;;
45694;SDS011;31408;45.468;9.124;2023-06-22T07:43:58;24.25;;;8.30;;
45694;SDS011;31408;45.468;9.124;2023-06-22T07:46:24;23.60;;;8.23;;
45694;SDS011;31408;45.468;9.124;2023-06-22T07:48:49;20.02;;;7.95;;
45694;SDS011;31408;45.468;9.124;2023-06-22T07:51:15;17.88;;;5.32;;
45694;SDS011;31408;45.468;9.124;2023-06-22T07:53:41;12.32;;;5.32;;
45694;SDS011;31408;45.468;9.124;2023-06-22T07:56:09;14.27;;;5.22;;
45694;SDS011;31408;45.468;9.124;2023-06-22T07:58:36;17.65;;;5.25;;
45694;SDS011;31408;45.468;9.124;2023-06-22T08:01:01;12.95;;;5.13;;
45694;SDS011;31408;45.468;9.124;2023-06-22T08:03:27;18.50;;;5.35;;
45694;SDS011;31408;45.468;9.124;2023-06-22T08:05:53;12.90;;;5.13;;
45694;SDS011;31408;45.468;9.124;2023-06-22T08:08:18;16.15;;;4.82;;
45694;SDS011;31408;45.468;9.124;2023-06-22T08:10:44;13.35;;;5.88;;
45694;SDS011;31408;45.468;9.124;2023-06-22T08:13:10;12.82;;;5.10;;
45694;SDS011;31408;45.468;9.124;2023-06-22T08:15:35;13.18;;;4.78;;
45694;SDS011;31408;45.468;9.124;2023-06-22T08:18:01;14.85;;;5.78;;
45694;SDS011;31408;45.468;9.124;2023-06-22T08:20:26;12.55;;;5.80;;
45694;SDS011;31408;45.468;9.124;2023-06-22T08:22:52;12.45;;;4.60;;
45694;SDS011;31408;45.468;9.124;2023-06-22T08:25:18;12.05;;;4.70;;
45694;SDS011;31408;45.468;9.124;2023-06-22T08:27:47;20.80;;;6.32;;
45694;SDS011;31408;45.468;9.124;2023-06-22T08:30:15;14.20;;;6.15;;
45694;SDS011;31408;45.468;9.124;2023-06-22T08:32:43;15.32;;;6.20;;
45694;SDS011;31408;45.468;9.124;2023-06-22T08:35:09;11.27;;;6.15;;
45694;SDS011;31408;45.468;9.124;2023-06-22T08:37:34;24.48;;;8.45;;
45694;SDS011;31408;45.468;9.124;2023-06-22T08:40:01;16.40;;;7.40;;
45694;SDS011;31408;45.468;9.124;2023-06-22T08:42:33;16.02;;;7.03;;
45694;SDS011;31408;45.468;9.124;2023-06-22T08:44:58;21.20;;;6.85;;
45694;SDS011;31408;45.468;9.124;2023-06-22T08:47:24;18.30;;;7.10;;
45694;SDS011;31408;45.468;9.124;2023-06-22T08:49:54;18.65;;;8.88;;
45694;SDS011;31408;45.468;9.124;2023-06-22T08:52:20;17.27;;;7.75;;
45694;SDS011;31408;45.468;9.124;2023-06-22T08:54:46;16.90;;;8.77;;
45694;SDS011;31408;45.468;9.124;2023-06-22T08:57:12;18.05;;;7.60;;
45694;SDS011;31408;45.468;9.124;2023-06-22T08:59:38;18.92;;;9.15;;
45694;SDS011;31408;45.468;9.124;2023-06-22T09:02:03;18.92;;;7.45;;
45694;SDS011;31408;45.468;9.124;2023-06-22T09:04:29;17.67;;;9.63;;
45694;SDS011;31408;45.468;9.124;2023-06-22T09:06:54;14.77;;;7.47;;
45694;SDS011;31408;45.468;9.124;2023-06-22T09:09:25;23.40;;;8.82;;
45694;SDS011;31408;45.468;9.124;2023-06-22T09:11:50;20.33;;;9.55;;
45694;SDS011;31408;45.468;9.124;2023-06-22T09:14:15;20.95;;;8.82;;
45694;SDS011;31408;45.468;9.124;2023-06-22T09:16:41;22.80;;;9.98;;
45694;SDS011;31408;45.468;9.124;2023-06-22T09:19:07;13.43;;;6.30;;
45694;SDS011;31408;45.468;9.124;2023-06-22T09:21:32;15.98;;;7.90;;
45694;SDS011;31408;45.468;9.124;2023-06-22T09:23:58;16.48;;;6.97;;
45694;SDS011;31408;45.468;9.124;2023-06-22T09:26:23;17.75;;;8.10;;
45694;SDS011;31408;45.468;9.124;2023-06-22T09:28:54;17.00;;;7.88;;
45694;SDS011;31408;45.468;9.124;2023-06-22T09:31:19;14.07;;;6.93;;
45694;SDS011;31408;45.468;9.124;2023-06-22T09:33:53;20.27;;;6.65;;
45694;SDS011;31408;45.468;9.124;2023-06-22T09:36:20;18.85;;;7.53;;
45694;SDS011;31408;45.468;9.124;2023-06-22T09:38:46;15.85;;;6.75;;
45694;SDS011;31408;45.468;9.124;2023-06-22T09:41:13;20.65;;;7.57;;
45694;SDS011;31408;45.468;9.124;2023-06-22T09:43:38;14.70;;;6.88;;
45694;SDS011;31408;45.468;9.124;2023-06-22T09:46:03;14.18;;;6.45;;
45694;SDS011;31408;45.468;9.124;2023-06-22T09:48:29;13.65;;;6.72;;
45694;SDS011;31408;45.468;9.124;2023-06-22T09:50:56;19.60;;;8.50;;
45694;SDS011;31408;45.468;9.124;2023-06-22T09:53:21;17.77;;;7.80;;
45694;SDS011;31408;45.468;9.124;2023-06-22T09:55:47;19.33;;;8.40;;
45694;SDS011;31408;45.468;9.124;2023-06-22T09:58:12;17.38;;;7.50;;
45694;SDS011;31408;45.468;9.124;2023-06-22T10:00:38;15.55;;;6.97;;
45694;SDS011;31408;45.468;9.124;2023-06-22T10:03:03;13.30;;;6.72;;
45694;SDS011;31408;45.468;9.124;2023-06-22T10:05:29;12.82;;;5.80;;
45694;SDS011;31408;45.468;9.124;2023-06-22T10:07:59;20.13;;;6.32;;
45694;SDS011;31408;45.468;9.124;2023-06-22T10:10:25;12.23;;;5.88;;
45694;SDS011;31408;45.468;9.124;2023-06-22T10:12:57;17.65;;;6.72;;
45694;SDS011;31408;45.468;9.124;2023-06-22T10:15:23;16.75;;;6.90;;
45694;SDS011;31408;45.468;9.124;2023-06-22T10:17:49;15.80;;;6.10;;
45694;SDS011;31408;45.468;9.124;2023-06-22T10:20:15;18.17;;;6.13;;
45694;SDS011;31408;45.468;9.124;2023-06-22T10:22:44;9.52;;;6.18;;
45694;SDS011;31408;45.468;9.124;2023-06-22T10:25:10;14.82;;;5.68;;
45694;SDS011;31408;45.468;9.124;2023-06-22T10:27:37;12.15;;;6.22;;
45694;SDS011;31408;45.468;9.124;2023-06-22T10:30:05;13.55;;;6.03;;
45694;SDS011;31408;45.468;9.124;2023-06-22T10:32:32;15.82;;;5.60;;
45694;SDS011;31408;45.468;9.124;2023-06-22T10:34:58;11.70;;;4.95;;
45694;SDS011;31408;45.468;9.124;2023-06-22T10:37:23;10.20;;;5.85;;
45694;SDS011;31408;45.468;9.124;2023-06-22T10:39:49;10.45;;;5.80;;
45694;SDS011;31408;45.468;9.124;2023-06-22T10:42:17;15.50;;;6.30;;
45694;SDS011;31408;45.468;9.124;2023-06-22T10:44:42;15.20;;;6.57;;
45694;SDS011;31408;45.468;9.124;2023-06-22T10:47:09;11.60;;;5.55;;
45694;SDS011;31408;45.468;9.124;2023-06-22T10:49:37;9.27;;;5.50;;
45694;SDS011;31408;45.468;9.124;2023-06-22T10:52:03;14.63;;;5.80;;
45694;SDS011;31408;45.468;9.124;2023-06-22T10:54:29;13.20;;;5.68;;
45694;SDS011;31408;45.468;9.124;2023-06-22T10:56:54;12.40;;;5.57;;
45694;SDS011;31408;45.468;9.124;2023-06-22T10:59:25;10.88;;;6.30;;
45694;SDS011;31408;45.468;9.124;2023-06-22T11:01:51;14.20;;;6.15;;
45694;SDS011;31408;45.468;9.124;2023-06-22T11:04:17;12.48;;;5.85;;
45694;SDS011;31408;45.468;9.124;2023-06-22T11:06:43;15.10;;;6.22;;
45694;SDS011;31408;45.468;9.124;2023-06-22T11:09:08;12.90;;;5.85;;
45694;SDS011;31408;45.468;9.124;2023-06-22T11:11:34;12.95;;;5.55;;
45694;SDS011;31408;45.468;9.124;2023-06-22T11:13:59;11.23;;;6.05;;
45694;SDS011;31408;45.468;9.124;2023-06-22T11:16:25;15.95;;;7.88;;
45694;SDS011;31408;45.468;9.124;2023-06-22T11:18:50;10.90;;;6.03;;
45694;SDS011;31408;45.468;9.124;2023-06-22T11:21:16;14.65;;;6.40;;
45694;SDS011;31408;45.468;9.124;2023-06-22T11:23:41;15.13;;;6.50;;
45694;SDS011;31408;45.468;9.124;2023-06-22T11:26:07;16.25;;;6.65;;
45694;SDS011;31408;45.468;9.124;2023-06-22T11:28:33;13.43;;;6.05;;
45694;SDS011;31408;45.468;9.124;2023-06-22T11:30:58;13.88;;;5.95;;
45694;SDS011;31408;45.468;9.124;2023-06-22T11:33:24;11.52;;;6.43;;
45694;SDS011;31408;45.468;9.124;2023-06-22T11:35:49;20.08;;;5.68;;
45694;SDS011;31408;45.468;9.124;2023-06-22T11:38:20;12.52;;;6.47;;
45694;SDS011;31408;45.468;9.124;2023-06-22T11:40:45;13.23;;;5.88;;
45694;SDS011;31408;45.468;9.124;2023-06-22T11:43:11;12.32;;;5.53;;
45694;SDS011;31408;45.468;9.124;2023-06-22T11:45:36;14.85;;;5.38;;
45694;SDS011;31408;45.468;9.124;2023-06-22T11:48:12;12.13;;;5.38;;
45694;SDS011;31408;45.468;9.124;2023-06-22T11:50:37;16.45;;;5.32;;
45694;SDS011;31408;45.468;9.124;2023-06-22T11:53:03;13.05;;;5.22;;
45694;SDS011;31408;45.468;9.124;2023-06-22T11:55:29;11.27;;;4.97;;
45694;SDS011;31408;45.468;9.124;2023-06-22T11:57:55;11.10;;;5.53;;
45694;SDS011;31408;45.468;9.124;2023-06-22T12:00:22;8.82;;;4.60;;
45694;SDS011;31408;45.468;9.124;2023-06-22T12:02:49;15.68;;;5.72;;
45694;SDS011;31408;45.468;9.124;2023-06-22T12:05:17;9.68;;;4.78;;
45694;SDS011;31408;45.468;9.124;2023-06-22T12:07:45;9.35;;;5.15;;
45694;SDS011;31408;45.468;9.124;2023-06-22T12:10:11;11.77;;;4.75;;
45694;SDS011;31408;45.468;9.124;2023-06-22T12:12:36;12.43;;;5.13;;
45694;SDS011;31408;45.468;9.124;2023-06-22T12:15:02;11.02;;;4.97;;
45694;SDS011;31408;45.468;9.124;2023-06-22T12:17:29;11.27;;;4.53;;
45694;SDS011;31408;45.468;9.124;2023-06-22T12:19:55;11.85;;;4.38;;
45694;SDS011;31408;45.468;9.124;2023-06-22T12:22:20;9.20;;;5.07;;
45694;SDS011;31408;45.468;9.124;2023-06-22T12:24:46;10.73;;;4.55;;
45694;SDS011;31408;45.468;9.124;2023-06-22T12:27:12;11.18;;;5.63;;
45694;SDS011;31408;45.468;9.124;2023-06-22T12:29:47;12.45;;;5.65;;
45694;SDS011;31408;45.468;9.124;2023-06-22T12:32:13;12.35;;;4.70;;
45694;SDS011;31408;45.468;9.124;2023-06-22T12:34:39;13.00;;;5.53;;
45694;SDS011;31408;45.468;9.124;2023-06-22T12:37:05;9.98;;;4.50;;
45694;SDS011;31408;45.468;9.124;2023-06-22T12:39:34;15.63;;;4.93;;
45694;SDS011;31408;45.468;9.124;2023-06-22T12:41:59;9.55;;;4.57;;
45694;SDS011;31408;45.468;9.124;2023-06-22T12:44:25;12.88;;;4.65;;
45694;SDS011;31408;45.468;9.124;2023-06-22T12:46:50;8.52;;;5.13;;
45694;SDS011;31408;45.468;9.124;2023-06-22T12:49:16;10.80;;;5.13;;
45694;SDS011;31408;45.468;9.124;2023-06-22T12:51:42;9.57;;;4.50;;
45694;SDS011;31408;45.468;9.124;2023-06-22T12:54:08;10.30;;;4.75;;
45694;SDS011;31408;45.468;9.124;2023-06-22T12:56:34;11.43;;;4.63;;
45694;SDS011;31408;45.468;9.124;2023-06-22T12:59:02;9.88;;;5.20;;
45694;SDS011;31408;45.468;9.124;2023-06-22T13:01:29;9.90;;;5.22;;
45694;SDS011;31408;45.468;9.124;2023-06-22T13:03:58;13.93;;;4.97;;
45694;SDS011;31408;45.468;9.124;2023-06-22T13:06:24;13.30;;;4.32;;
45694;SDS011;31408;45.468;9.124;2023-06-22T13:08:50;11.38;;;4.40;;
45694;SDS011;31408;45.468;9.124;2023-06-22T13:11:15;13.02;;;4.68;;
45694;SDS011;31408;45.468;9.124;2023-06-22T13:13:41;8.43;;;4.15;;
45694;SDS011;31408;45.468;9.124;2023-06-22T13:16:06;12.65;;;4.65;;
45694;SDS011;31408;45.468;9.124;2023-06-22T13:18:32;14.05;;;5.28;;
45694;SDS011;31408;45.468;9.124;2023-06-22T13:21:02;9.93;;;5.28;;
45694;SDS011;31408;45.468;9.124;2023-06-22T13:23:28;11.55;;;5.30;;
45694;SDS011;31408;45.468;9.124;2023-06-22T13:25:54;10.07;;;5.13;;
45694;SDS011;31408;45.468;9.124;2023-06-22T13:28:19;9.75;;;5.03;;
45694;SDS011;31408;45.468;9.124;2023-06-22T13:30:46;10.00;;;4.80;;
45694;SDS011;31408;45.468;9.124;2023-06-22T13:33:15;10.75;;;5.68;;
45694;SDS011;31408;45.468;9.124;2023-06-22T13:35:41;10.40;;;4.88;;
45694;SDS011;31408;45.468;9.124;2023-06-22T13:38:08;18.77;;;5.28;;
45694;SDS011;31408;45.468;9.124;2023-06-22T13:40:37;11.70;;;5.03;;
45694;SDS011;31408;45.468;9.124;2023-06-22T13:43:07;11.10;;;4.55;;
45694;SDS011;31408;45.468;9.124;2023-06-22T13:45:33;10.38;;;5.25;;
45694;SDS011;31408;45.468;9.124;2023-06-22T13:47:58;11.48;;;5.38;;
45694;SDS011;31408;45.468;9.124;2023-06-22T13:50:24;11.13;;;5.63;;
45694;SDS011;31408;45.468;9.124;2023-06-22T13:52:49;13.30;;;5.22;;
45694;SDS011;31408;45.468;9.124;2023-06-22T13:55:15;14.45;;;5.72;;
45694;SDS011;31408;45.468;9.124;2023-06-22T13:57:40;11.75;;;4.75;;
45694;SDS011;31408;45.468;9.124;2023-06-22T14:00:07;11.15;;;4.70;;
45694;SDS011;31408;45.468;9.124;2023-06-22T14:02:37;8.98;;;4.38;;
45694;SDS011;31408;45.468;9.124;2023-06-22T14:05:02;10.70;;;4.65;;
45694;SDS011;31408;45.468;9.124;2023-06-22T14:07:28;6.70;;;4.32;;
45694;SDS011;31408;45.468;9.124;2023-06-22T14:09:54;12.55;;;5.97;;
45694;SDS011;31408;45.468;9.124;2023-06-22T14:12:19;12.25;;;5.38;;
45694;SDS011;31408;45.468;9.124;2023-06-22T14:14:45;11.90;;;6.25;;
45694;SDS011;31408;45.468;9.124;2023-06-22T14:17:10;12.13;;;5.10;;
45694;SDS011;31408;45.468;9.124;2023-06-22T14:19:36;15.90;;;5.45;;
45694;SDS011;31408;45.468;9.124;2023-06-22T14:22:01;9.00;;;4.93;;
45694;SDS011;31408;45.468;9.124;2023-06-22T14:24:27;8.82;;;4.97;;
45694;SDS011;31408;45.468;9.124;2023-06-22T14:26:53;14.82;;;6.35;;
45694;SDS011;31408;45.468;9.124;2023-06-22T14:29:19;13.57;;;7.00;;
45694;SDS011;31408;45.468;9.124;2023-06-22T14:31:45;11.68;;;5.57;;
45694;SDS011;31408;45.468;9.124;2023-06-22T14:34:11;16.13;;;5.20;;
45694;SDS011;31408;45.468;9.124;2023-06-22T14:36:37;11.48;;;4.57;;